CBU4 weather

Prince Rupert (Hydro) Heliport
Prince Rupert, British Columbia, Canada

Public forecast

Using degrees Celsius for public forecast. Weather courtesy of forecast.io.

METAR (pilot weather report)

Closest report is Prince Rupert Airport, 5.5 nm (10.2 km) WSW. Retrieved 2019/07/15 17:00 UTC (14 minutes ago):

CYPR 151700Z AUTO 18005KT 170V230 9SM OVC060 16/14 A3008 RMK SLP189

TAF (pilot weather forecast)

Closest forecast is Prince Rupert Airport, 5.5 nm (10.2 km) WSW. Retrieved 2019/07/15 13:39 UTC (4 hours ago):

TAF CYPR 151238Z 1513/1601 VRB03KT P6SM SCT020 BKN040 TEMPO 1513/1519 5SM -SHRA BR BKN020 OVC040 PROB30 1513/1516 1SM BR BKN005 FM151900 VRB03KT P6SM SCT040 TEMPO 1519/1601 SCT020 BKN040 BECMG 1519/1521 26005KT RMK FCST BASED ON AUTO OBS. NXT FCST BY 151900Z